createdAt,value
2023-08-16T00:01:00.481Z,65.97
2023-08-16T00:11:04.041Z,65.53
2023-08-16T00:21:07.050Z,66.76
2023-08-16T00:31:10.032Z,67.02
2023-08-16T00:41:14.317Z,67.13
2023-08-16T00:51:17.740Z,67.62
2023-08-16T01:01:21.125Z,68.26
2023-08-16T01:11:30.434Z,69.38
2023-08-16T01:21:38.446Z,70.72
2023-08-16T01:31:41.840Z,71.75
2023-08-16T01:41:53.519Z,72.41
2023-08-16T01:51:56.963Z,72.72
2023-08-16T02:02:01.101Z,73.59
2023-08-16T02:12:04.568Z,74.44
2023-08-16T02:22:08.032Z,74.91
2023-08-16T02:32:11.010Z,75.26
2023-08-16T02:42:14.009Z,75.92
2023-08-16T02:52:18.577Z,76.17
2023-08-16T03:02:21.715Z,76.31
2023-08-16T03:12:24.751Z,76.59
2023-08-16T03:22:27.681Z,76.75
2023-08-16T03:32:30.701Z,76.35
2023-08-16T03:42:33.837Z,75.84
2023-08-16T03:52:36.907Z,75.36
2023-08-16T04:02:40.186Z,75.36
2023-08-16T04:12:43.367Z,74.95
2023-08-16T04:22:46.331Z,74.88
2023-08-16T04:32:49.337Z,74.50
2023-08-16T04:42:52.509Z,74.46
2023-08-16T04:52:55.693Z,74.23
2023-08-16T05:03:01.926Z,73.55
2023-08-16T05:13:07.162Z,73.95
2023-08-16T05:23:10.181Z,74.03
2023-08-16T05:33:13.291Z,73.06
2023-08-16T05:43:16.301Z,72.31
2023-08-16T05:53:19.335Z,72.01
2023-08-16T06:03:22.607Z,71.86
2023-08-16T06:13:26.183Z,71.69
2023-08-16T06:23:29.224Z,71.24
2023-08-16T06:33:33.163Z,70.60
2023-08-16T06:43:36.264Z,70.33
2023-08-16T06:53:41.177Z,69.43
2023-08-16T07:03:44.284Z,68.73
2023-08-16T07:13:48.003Z,68.45
2023-08-16T07:23:51.546Z,67.96
2023-08-16T07:33:54.584Z,67.43
2023-08-16T07:43:59.964Z,66.05
2023-08-16T07:54:03.779Z,64.55
2023-08-16T08:04:07.070Z,63.59
2023-08-16T08:14:11.533Z,60.40
2023-08-16T08:24:13.627Z,59.39
2023-08-16T08:34:16.964Z,57.76
2023-08-16T08:44:22.441Z,56.47
2023-08-16T08:54:25.595Z,56.55
2023-08-16T09:04:30.685Z,54.86
2023-08-16T09:14:33.703Z,52.99
2023-08-16T09:24:36.693Z,51.09
2023-08-16T09:34:52.776Z,49.75
2023-08-16T09:44:59.164Z,49.27
2023-08-16T09:55:02.251Z,48.07
2023-08-16T10:05:07.134Z,46.05
2023-08-16T10:15:11.365Z,43.00
2023-08-16T10:25:17.758Z,40.79
2023-08-16T10:35:21.920Z,38.51
2023-08-16T10:55:35.615Z,36.71
2023-08-16T11:05:39.102Z,35.84
2023-08-16T11:15:42.995Z,35.36
2023-08-16T11:25:46.053Z,35.46
2023-08-16T11:35:49.498Z,35.29
2023-08-16T11:45:53.399Z,35.13
2023-08-16T11:56:00.782Z,33.63
2023-08-16T12:06:07.113Z,34.17
2023-08-16T12:16:10.111Z,33.38
2023-08-16T12:26:14.671Z,32.01
2023-08-16T12:36:17.723Z,31.05
2023-08-16T12:46:20.800Z,31.85
2023-08-16T12:56:23.967Z,29.50
2023-08-16T13:06:31.938Z,28.38
2023-08-16T13:16:44.991Z,27.45
2023-08-16T13:36:57.491Z,25.92
2023-08-16T13:47:01.500Z,24.60
2023-08-16T13:57:04.906Z,24.82
2023-08-16T14:07:07.981Z,24.22
2023-08-16T14:17:11.025Z,25.16
2023-08-16T14:27:13.980Z,26.28
2023-08-16T14:37:16.969Z,28.46
2023-08-16T14:47:19.937Z,29.63
2023-08-16T14:57:22.923Z,29.01
2023-08-16T15:07:26.633Z,28.77
2023-08-16T15:17:29.839Z,30.42
2023-08-16T15:27:32.965Z,30.73
2023-08-16T15:37:36.012Z,33.35
2023-08-16T15:47:39.425Z,35.98
2023-08-16T15:57:42.449Z,38.10
2023-08-16T16:07:45.422Z,37.44
2023-08-16T16:17:48.424Z,36.06
2023-08-16T16:27:51.756Z,37.11
2023-08-16T16:37:54.821Z,39.10
2023-08-16T16:47:57.824Z,40.40
2023-08-16T16:58:01.296Z,42.06
2023-08-16T17:08:05.200Z,43.07
2023-08-16T17:18:08.399Z,44.76
2023-08-16T17:28:12.249Z,45.90
2023-08-16T17:38:14.378Z,46.49
2023-08-16T17:48:17.432Z,47.44
2023-08-16T17:58:21.654Z,47.73
2023-08-16T18:08:23.775Z,49.16
2023-08-16T18:18:26.728Z,50.17
2023-08-16T18:28:29.704Z,51.33
2023-08-16T18:38:32.798Z,52.01
2023-08-16T18:48:35.780Z,52.55
2023-08-16T18:58:38.754Z,53.84
2023-08-16T19:08:43.134Z,54.75
2023-08-16T19:18:48.666Z,55.04
2023-08-16T19:28:51.819Z,55.58
2023-08-16T19:38:54.769Z,56.38
2023-08-16T19:48:57.772Z,57.28
2023-08-16T19:59:00.839Z,57.96
2023-08-16T20:09:04.276Z,59.01
2023-08-16T20:19:08.523Z,59.65
2023-08-16T20:29:11.491Z,60.18
2023-08-16T20:39:14.616Z,61.11
2023-08-16T20:49:17.640Z,61.52
2023-08-16T20:59:21.527Z,61.72
2023-08-16T21:09:25.073Z,62.09
2023-08-16T21:19:28.147Z,62.41
2023-08-16T21:29:33.428Z,64.99
2023-08-16T21:39:36.423Z,66.66
2023-08-16T21:49:39.372Z,68.20
2023-08-16T21:59:42.384Z,70.96
2023-08-16T22:09:45.425Z,71.80
2023-08-16T22:19:48.431Z,71.87
2023-08-16T22:29:51.478Z,71.62
2023-08-16T22:39:54.521Z,71.51
2023-08-16T22:49:57.763Z,71.03
2023-08-16T23:00:00.736Z,71.15
2023-08-16T23:10:05.000Z,71.85
2023-08-16T23:20:10.046Z,72.43
2023-08-16T23:30:14.323Z,72.55
2023-08-16T23:40:17.762Z,73.10
2023-08-16T23:50:20.748Z,74.43
